createdAt,value
2019-04-25T00:00:22.417Z,12.20
2019-04-25T00:01:22.458Z,12.12
2019-04-25T00:02:22.394Z,12.43
2019-04-25T00:03:22.399Z,13.04
2019-04-25T00:04:22.373Z,13.50
2019-04-25T00:05:22.363Z,13.97
2019-04-25T00:06:23.052Z,14.35
2019-04-25T00:07:22.392Z,14.60
2019-04-25T00:08:22.330Z,14.38
2019-04-25T00:09:22.322Z,13.98
2019-04-25T00:10:22.318Z,13.22
2019-04-25T00:11:22.297Z,12.15
2019-04-25T00:12:22.388Z,11.34
2019-04-25T00:13:22.376Z,10.67
2019-04-25T00:14:22.697Z,10.46
2019-04-25T00:15:22.442Z,9.91
2019-04-25T00:16:22.246Z,9.51
2019-04-25T00:17:22.235Z,9.12
2019-04-25T00:18:23.371Z,8.91
2019-04-25T00:19:22.260Z,9.15
2019-04-25T00:20:22.199Z,9.47
2019-04-25T00:21:22.192Z,9.47
2019-04-25T00:22:22.176Z,9.51
2019-04-25T00:23:22.167Z,9.79
2019-04-25T00:24:23.799Z,10.67
2019-04-25T00:25:22.198Z,11.85
2019-04-25T00:26:22.134Z,12.47
2019-04-25T00:27:23.763Z,13.21
2019-04-25T00:28:22.113Z,13.39
2019-04-25T00:29:22.203Z,13.90
2019-04-25T00:30:22.581Z,14.13
2019-04-25T00:31:22.137Z,14.44
2019-04-25T00:32:22.072Z,14.77
2019-04-25T00:33:22.061Z,14.82
2019-04-25T00:34:22.055Z,14.89
2019-04-25T00:35:22.036Z,14.83
2019-04-25T00:36:22.027Z,14.79
2019-04-25T00:37:22.632Z,14.83
2019-04-25T00:38:22.278Z,15.16
2019-04-25T00:39:21.997Z,15.11
2019-04-25T00:40:22.027Z,15.11
2019-04-25T00:41:21.978Z,14.79
2019-04-25T00:42:23.218Z,14.31
2019-04-25T00:43:22.103Z,13.98
2019-04-25T00:44:22.056Z,13.42
2019-04-25T00:45:22.341Z,13.24
2019-04-25T00:46:22.565Z,13.03
2019-04-25T00:47:21.908Z,13.07
2019-04-25T00:48:22.328Z,13.12
2019-04-25T00:49:23.583Z,13.15
2019-04-25T00:50:22.010Z,13.20
2019-04-25T00:51:21.870Z,13.68
2019-04-25T00:52:22.836Z,13.78
2019-04-25T00:53:21.844Z,13.94
2019-04-25T00:54:22.699Z,13.91
2019-04-25T00:55:28.493Z,13.64
2019-04-25T00:56:48.290Z,13.09
2019-04-25T00:57:46.753Z,12.53
2019-04-25T00:58:46.810Z,11.67
2019-04-25T00:59:46.891Z,11.05
2019-04-25T01:00:46.942Z,10.42
2019-04-25T01:01:47.925Z,10.47
2019-04-25T01:02:47.326Z,10.46
2019-04-25T01:03:47.174Z,10.01
2019-04-25T01:04:47.195Z,9.62
2019-04-25T01:05:47.467Z,9.23
2019-04-25T01:06:47.525Z,9.17
2019-04-25T01:07:46.507Z,9.09
2019-04-25T01:08:46.496Z,8.93
2019-04-25T01:09:46.485Z,8.83
2019-04-25T01:10:46.476Z,8.91
2019-04-25T01:11:46.464Z,8.81
2019-04-25T01:12:46.503Z,8.75
2019-04-25T01:13:46.455Z,8.86
2019-04-25T01:14:46.530Z,9.27
2019-04-25T01:15:46.462Z,9.79
2019-04-25T01:16:46.542Z,10.24
2019-04-25T01:17:46.976Z,10.42
2019-04-25T01:18:46.795Z,11.02
2019-04-25T01:19:46.781Z,12.10
2019-04-25T01:20:46.961Z,12.59
2019-04-25T01:21:46.993Z,12.75
2019-04-25T01:22:47.173Z,12.95
2019-04-25T01:23:47.265Z,13.12
2019-04-25T01:24:47.212Z,12.89
2019-04-25T01:25:47.063Z,12.67
2019-04-25T01:26:46.301Z,12.59
2019-04-25T01:27:46.298Z,12.55
2019-04-25T01:28:46.285Z,13.09
2019-04-25T01:29:46.358Z,13.50
2019-04-25T01:30:46.385Z,13.36
2019-04-25T01:31:46.624Z,13.53
2019-04-25T01:32:46.773Z,13.42
2019-04-25T01:33:46.773Z,13.36
2019-04-25T01:34:47.027Z,13.72
2019-04-25T01:35:47.259Z,13.17
2019-04-25T01:36:47.177Z,13.12
2019-04-25T01:37:47.375Z,13.06
2019-04-25T01:38:47.314Z,13.02
2019-04-25T01:39:47.448Z,13.20
2019-04-25T01:40:47.128Z,13.37
2019-04-25T01:41:47.579Z,12.79
2019-04-25T01:42:46.180Z,12.51
2019-04-25T01:43:46.118Z,12.74
2019-04-25T01:44:46.105Z,12.77
2019-04-25T01:45:46.096Z,13.12
2019-04-25T01:46:46.085Z,12.74
2019-04-25T01:47:46.130Z,12.97
2019-04-25T01:48:46.073Z,13.03
2019-04-25T01:49:46.056Z,13.14
2019-04-25T01:50:46.042Z,13.33
2019-04-25T01:51:46.028Z,12.92
2019-04-25T01:52:46.023Z,12.77
2019-04-25T01:53:46.062Z,12.44
2019-04-25T01:54:46.000Z,12.36
2019-04-25T01:55:55.989Z,13.09
2019-04-25T01:57:10.791Z,12.92
2019-04-25T01:58:10.779Z,12.84
2019-04-25T01:59:10.822Z,12.51
2019-04-25T02:00:10.759Z,12.23
2019-04-25T02:01:10.749Z,12.67
2019-04-25T02:02:10.737Z,13.60
2019-04-25T02:03:10.734Z,13.70
2019-04-25T02:04:10.715Z,13.35
2019-04-25T02:05:10.803Z,12.75
2019-04-25T02:06:10.699Z,12.14
2019-04-25T02:07:10.684Z,11.87
2019-04-25T02:08:10.671Z,11.59
2019-04-25T02:09:10.660Z,11.75
2019-04-25T02:10:10.650Z,11.53
2019-04-25T02:11:10.738Z,11.08
2019-04-25T02:12:10.629Z,10.46
2019-04-25T02:13:10.617Z,10.04
2019-04-25T02:14:10.608Z,9.82
2019-04-25T02:15:10.597Z,9.62
2019-04-25T02:16:10.838Z,9.49
2019-04-25T02:17:10.575Z,9.20
2019-04-25T02:18:10.564Z,9.01
2019-04-25T02:19:10.554Z,8.94
2019-04-25T02:20:10.543Z,8.90
2019-04-25T02:21:10.531Z,8.91
2019-04-25T02:22:10.572Z,8.93
2019-04-25T02:23:10.513Z,8.96
2019-04-25T02:24:10.499Z,8.99
2019-04-25T02:25:10.489Z,9.01
2019-04-25T02:26:16.027Z,9.01
2019-04-25T02:27:35.331Z,9.22
2019-04-25T02:28:35.321Z,9.48
2019-04-25T02:29:35.313Z,9.82
2019-04-25T02:30:35.793Z,10.58
2019-04-25T02:31:35.288Z,11.06
2019-04-25T02:32:37.197Z,11.38
2019-04-25T02:33:35.269Z,11.57
2019-04-25T02:34:35.263Z,11.86
2019-04-25T02:35:35.249Z,12.48
2019-04-25T02:36:35.263Z,12.88
2019-04-25T02:37:35.317Z,12.85
2019-04-25T02:38:35.269Z,12.61
2019-04-25T02:39:37.330Z,12.28
2019-04-25T02:40:35.199Z,12.08
2019-04-25T02:41:35.186Z,12.12
2019-04-25T02:42:35.173Z,11.89
2019-04-25T02:43:35.334Z,11.90
2019-04-25T02:44:35.254Z,11.98
2019-04-25T02:45:35.140Z,12.36
2019-04-25T02:46:37.240Z,12.78
2019-04-25T02:47:35.121Z,12.66
2019-04-25T02:48:35.108Z,12.29
2019-04-25T02:49:38.882Z,12.43
2019-04-25T02:50:35.238Z,12.23
2019-04-25T02:51:35.145Z,11.85
2019-04-25T02:52:35.064Z,11.54
2019-04-25T02:53:37.294Z,11.82
2019-04-25T02:54:35.053Z,12.56
2019-04-25T02:55:37.565Z,12.84
2019-04-25T02:56:38.709Z,13.51
2019-04-25T02:57:35.020Z,13.68
2019-04-25T02:58:35.006Z,13.35
2019-04-25T02:59:36.962Z,13.46
2019-04-25T03:00:51.323Z,13.91
2019-04-25T03:02:00.731Z,14.72
2019-04-25T03:03:01.000Z,15.02
2019-04-25T03:04:00.956Z,15.14
2019-04-25T03:05:01.173Z,15.34
2019-04-25T03:06:01.451Z,15.35
2019-04-25T03:07:00.695Z,15.12
2019-04-25T03:08:01.270Z,14.83
2019-04-25T03:09:00.304Z,14.98
2019-04-25T03:09:59.823Z,15.37
2019-04-25T03:10:59.892Z,15.37
2019-04-25T03:11:59.981Z,15.48
2019-04-25T03:14:00.523Z,15.72
2019-04-25T03:15:00.126Z,15.63
2019-04-25T03:16:00.579Z,15.60
2019-04-25T03:17:00.411Z,15.44
2019-04-25T03:18:00.202Z,15.51
2019-04-25T03:19:00.548Z,15.20
2019-04-25T03:20:01.234Z,15.02
2019-04-25T03:21:01.163Z,15.14
2019-04-25T03:22:01.400Z,15.23
2019-04-25T03:23:01.132Z,15.68
2019-04-25T03:24:01.320Z,15.89
2019-04-25T03:25:00.339Z,15.70
2019-04-25T03:27:00.802Z,15.37
2019-04-25T03:27:59.678Z,15.10
2019-04-25T03:28:59.720Z,15.02
2019-04-25T03:29:59.736Z,14.62
2019-04-25T03:30:59.856Z,14.21
2019-04-25T03:32:00.939Z,13.93
2019-04-25T03:33:02.210Z,13.37
2019-04-25T03:34:02.182Z,12.95
2019-04-25T03:35:01.155Z,12.69
2019-04-25T03:35:59.511Z,12.85
2019-04-25T03:36:59.500Z,12.75
2019-04-25T03:38:00.472Z,12.38
2019-04-25T03:38:59.999Z,12.04
2019-04-25T03:39:59.468Z,11.70
2019-04-25T03:41:00.175Z,11.44
2019-04-25T03:41:59.444Z,11.44
2019-04-25T03:42:59.435Z,11.38
2019-04-25T03:43:59.475Z,11.67
2019-04-25T03:44:59.412Z,12.15
2019-04-25T03:45:59.399Z,12.51
2019-04-25T03:46:59.392Z,13.06
2019-04-25T03:47:59.379Z,13.62
2019-04-25T03:48:59.369Z,13.90
2019-04-25T03:49:59.409Z,14.42
2019-04-25T03:50:59.345Z,15.01
2019-04-25T03:51:59.336Z,15.41
2019-04-25T03:52:59.325Z,15.72
2019-04-25T03:53:59.313Z,15.97
2019-04-25T03:54:59.302Z,16.21
2019-04-25T03:56:59.384Z,16.18
2019-04-25T03:57:59.272Z,15.60
2019-04-25T03:58:59.259Z,15.52
2019-04-25T03:59:59.247Z,15.59
2019-04-25T04:00:59.244Z,15.14
2019-04-25T04:02:01.165Z,14.60
2019-04-25T04:02:59.266Z,14.27
2019-04-25T04:03:59.205Z,14.09
2019-04-25T04:04:59.194Z,13.78
2019-04-25T04:05:59.184Z,13.37
2019-04-25T04:06:59.173Z,13.20
2019-04-25T04:07:59.162Z,13.72
2019-04-25T04:08:59.249Z,13.88
2019-04-25T04:09:59.140Z,13.68
2019-04-25T04:10:59.130Z,13.45
2019-04-25T04:11:59.119Z,13.33
2019-04-25T04:12:59.109Z,13.30
2019-04-25T04:13:59.098Z,13.20
2019-04-25T04:14:59.187Z,12.96
2019-04-25T04:15:59.077Z,12.78
2019-04-25T04:16:59.064Z,12.63
2019-04-25T04:17:59.053Z,12.44
2019-04-25T04:18:59.042Z,12.28
2019-04-25T04:19:59.032Z,12.10
2019-04-25T04:20:59.118Z,12.00
2019-04-25T04:21:59.007Z,11.95
2019-04-25T04:22:58.997Z,11.92
2019-04-25T04:23:58.985Z,12.61
2019-04-25T04:24:58.978Z,13.53
2019-04-25T04:25:58.966Z,13.78
2019-04-25T04:27:03.613Z,13.93
2019-04-25T04:28:23.756Z,14.17
2019-04-25T04:29:25.495Z,14.10
2019-04-25T04:30:24.216Z,14.31
2019-04-25T04:31:23.728Z,14.12
2019-04-25T04:32:24.250Z,13.88
2019-04-25T04:33:31.907Z,13.75
2019-04-25T04:34:48.508Z,14.28
2019-04-25T04:35:48.497Z,14.16
2019-04-25T04:36:48.485Z,13.76
2019-04-25T04:37:48.524Z,13.39
2019-04-25T04:38:48.538Z,13.11
2019-04-25T04:39:48.471Z,12.95
2019-04-25T04:40:48.442Z,12.74
2019-04-25T04:41:48.432Z,12.61
2019-04-25T04:42:48.421Z,12.47
2019-04-25T04:43:48.458Z,12.36
2019-04-25T04:44:48.400Z,12.47
2019-04-25T04:45:48.388Z,12.25
2019-04-25T04:46:48.377Z,12.12
2019-04-25T04:47:48.367Z,12.14
2019-04-25T04:48:48.505Z,12.11
2019-04-25T04:49:48.345Z,12.14
2019-04-25T04:50:48.337Z,12.25
2019-04-25T04:51:48.323Z,12.25
2019-04-25T04:52:48.311Z,12.32
2019-04-25T04:53:48.300Z,12.41
2019-04-25T04:54:48.388Z,12.32
2019-04-25T04:55:48.280Z,12.41
2019-04-25T04:56:48.266Z,12.41
2019-04-25T04:57:48.255Z,12.32
2019-04-25T04:58:48.247Z,12.53
2019-04-25T04:59:48.234Z,12.59
2019-04-25T05:00:48.273Z,12.71
2019-04-25T05:01:48.214Z,12.75
2019-04-25T05:02:48.202Z,12.75
2019-04-25T05:03:48.193Z,12.87
2019-04-25T05:04:48.178Z,12.96
2019-04-25T05:05:48.226Z,13.00
2019-04-25T05:06:48.160Z,13.36
2019-04-25T05:07:48.150Z,13.87
2019-04-25T05:08:48.140Z,14.24
2019-04-25T05:09:48.127Z,14.67
2019-04-25T05:10:48.115Z,14.87
2019-04-25T05:11:48.154Z,14.80
2019-04-25T05:12:48.094Z,14.79
2019-04-25T05:13:48.087Z,14.56
2019-04-25T05:14:48.073Z,14.39
2019-04-25T05:15:48.064Z,14.25
2019-04-25T05:16:49.553Z,14.03
2019-04-25T05:17:48.125Z,13.87
2019-04-25T05:18:48.034Z,13.76
2019-04-25T05:19:48.018Z,13.76
2019-04-25T05:20:48.010Z,13.72
2019-04-25T05:21:48.001Z,13.61
2019-04-25T05:22:48.139Z,13.62
2019-04-25T05:23:47.978Z,13.62
2019-04-25T05:24:47.965Z,13.69
2019-04-25T05:25:47.955Z,13.60
2019-04-25T05:26:47.942Z,13.50
2019-04-25T05:27:59.673Z,13.53
2019-04-25T05:28:49.125Z,13.39
2019-04-25T05:29:47.912Z,13.39
2019-04-25T05:30:47.902Z,13.33
2019-04-25T05:31:47.893Z,13.36
2019-04-25T05:32:48.013Z,13.37
2019-04-25T05:33:47.873Z,13.27
2019-04-25T05:34:49.315Z,13.32
2019-04-25T05:35:47.849Z,13.30
2019-04-25T05:36:47.837Z,13.53
2019-04-25T05:37:47.827Z,13.91
2019-04-25T05:38:47.818Z,14.00
2019-04-25T05:39:47.804Z,14.03
2019-04-25T05:41:47.936Z,13.90
2019-04-25T05:42:47.774Z,13.79
2019-04-25T05:43:47.761Z,13.70
2019-04-25T05:44:47.754Z,13.66
2019-04-25T05:45:47.740Z,13.55
2019-04-25T05:46:47.817Z,13.69
2019-04-25T05:47:47.770Z,13.79
2019-04-25T05:48:47.710Z,13.78
2019-04-25T05:49:47.705Z,13.72
2019-04-25T05:50:47.693Z,13.72
2019-04-25T05:51:47.677Z,13.72
2019-04-25T05:52:47.666Z,13.80
2019-04-25T05:53:47.754Z,13.78
2019-04-25T05:54:47.646Z,13.75
2019-04-25T05:55:47.635Z,13.82
2019-04-25T05:56:47.623Z,13.72
2019-04-25T05:57:50.113Z,13.69
2019-04-25T05:58:47.601Z,13.58
2019-04-25T05:59:47.743Z,13.62
2019-04-25T06:00:47.580Z,13.68
2019-04-25T06:01:47.570Z,14.14
2019-04-25T06:02:47.557Z,14.85
2019-04-25T06:03:47.548Z,15.67
2019-04-25T06:04:47.537Z,15.94
2019-04-25T06:05:47.582Z,16.29
2019-04-25T06:06:47.515Z,16.61
2019-04-25T06:07:47.508Z,16.52
2019-04-25T06:08:47.495Z,16.70
2019-04-25T06:09:47.485Z,16.73
2019-04-25T06:10:47.525Z,16.62
2019-04-25T06:11:47.463Z,16.52
2019-04-25T06:12:47.451Z,16.29
2019-04-25T06:13:47.440Z,15.99
2019-04-25T06:14:47.430Z,15.70
2019-04-25T06:15:47.668Z,15.41
2019-04-25T06:16:47.407Z,15.34
2019-04-25T06:17:47.397Z,15.66
2019-04-25T06:18:47.384Z,16.15
2019-04-25T06:19:47.377Z,16.25
2019-04-25T06:20:47.363Z,16.29
2019-04-25T06:21:47.455Z,16.19
2019-04-25T06:22:47.342Z,16.19
2019-04-25T06:23:47.331Z,16.24
2019-04-25T06:24:47.321Z,16.37
2019-04-25T06:25:47.308Z,16.62
2019-04-25T06:26:47.300Z,16.36
2019-04-25T06:27:56.369Z,16.24
2019-04-25T06:29:13.413Z,15.99
2019-04-25T06:30:12.079Z,15.85
2019-04-25T06:31:13.678Z,15.68
2019-04-25T06:32:14.114Z,15.54
2019-04-25T06:34:13.975Z,15.34
2019-04-25T06:35:12.024Z,15.20
2019-04-25T06:36:12.013Z,15.26
2019-04-25T06:37:12.003Z,15.26
2019-04-25T06:38:13.373Z,15.34
2019-04-25T06:39:11.980Z,15.25
2019-04-25T06:40:13.730Z,15.07
2019-04-25T06:41:13.445Z,15.00
2019-04-25T06:42:11.951Z,14.68
2019-04-25T06:43:13.473Z,14.52
2019-04-25T06:44:13.617Z,14.39
2019-04-25T06:45:13.531Z,14.56
2019-04-25T06:46:12.006Z,15.41
2019-04-25T06:47:13.042Z,16.14
2019-04-25T06:48:11.883Z,16.90
2019-04-25T06:49:13.399Z,17.59
2019-04-25T06:50:11.859Z,18.06
2019-04-25T06:51:13.417Z,18.59
2019-04-25T06:52:11.887Z,18.82
2019-04-25T06:53:13.478Z,19.09
2019-04-25T06:54:13.460Z,19.22
2019-04-25T06:55:11.806Z,19.37
2019-04-25T06:56:13.568Z,19.49
2019-04-25T06:57:11.786Z,19.56
2019-04-25T06:58:14.072Z,19.64
2019-04-25T06:59:13.557Z,19.56
2019-04-25T07:00:11.750Z,19.65
2019-04-25T07:01:13.315Z,19.57
2019-04-25T07:02:11.730Z,19.56
2019-04-25T07:03:11.718Z,19.12
2019-04-25T07:04:11.757Z,18.87
2019-04-25T07:05:25.595Z,18.42
2019-04-25T07:06:12.980Z,18.28
2019-04-25T07:07:14.358Z,18.16
2019-04-25T07:08:13.193Z,18.14
2019-04-25T07:09:11.652Z,18.30
2019-04-25T07:10:13.247Z,18.46
2019-04-25T07:11:11.632Z,18.62
2019-04-25T07:12:13.397Z,18.72
2019-04-25T07:13:11.608Z,18.79
2019-04-25T07:14:11.596Z,19.13
2019-04-25T07:15:11.639Z,19.30
2019-04-25T07:16:13.278Z,19.42
2019-04-25T07:17:11.570Z,19.57
2019-04-25T07:18:11.561Z,19.59
2019-04-25T07:19:11.551Z,19.67
2019-04-25T07:20:11.540Z,19.71
2019-04-25T07:21:11.570Z,19.80
2019-04-25T07:22:11.517Z,19.83
2019-04-25T07:23:11.501Z,19.71
2019-04-25T07:24:11.489Z,19.83
2019-04-25T07:25:13.086Z,19.83
2019-04-25T07:26:11.466Z,19.28
2019-04-25T07:27:11.558Z,18.65
2019-04-25T07:28:22.222Z,18.59
2019-04-25T07:29:13.448Z,18.27
2019-04-25T07:30:11.426Z,18.01
2019-04-25T07:31:11.417Z,18.03
2019-04-25T07:32:11.552Z,18.26
2019-04-25T07:33:11.394Z,18.76
2019-04-25T07:34:11.379Z,19.45
2019-04-25T07:35:11.368Z,19.78
2019-04-25T07:36:11.438Z,19.84
2019-04-25T07:37:13.147Z,20.08
2019-04-25T07:38:11.388Z,20.30
2019-04-25T07:39:11.325Z,19.91
2019-04-25T07:40:11.317Z,19.39
2019-04-25T07:41:14.076Z,18.76
2019-04-25T07:42:11.294Z,18.36
2019-04-25T07:43:11.283Z,18.49
2019-04-25T07:44:11.372Z,18.62
2019-04-25T07:45:11.321Z,18.37
2019-04-25T07:46:11.259Z,18.36
2019-04-25T07:47:11.246Z,18.08
2019-04-25T07:48:11.230Z,17.83
2019-04-25T07:49:11.218Z,17.87
2019-04-25T07:50:11.356Z,17.83
2019-04-25T07:51:11.198Z,17.86
2019-04-25T07:52:11.593Z,18.16
2019-04-25T07:53:11.173Z,18.61
2019-04-25T07:54:11.163Z,19.09
2019-04-25T07:55:11.156Z,19.38
2019-04-25T07:56:11.241Z,19.72
2019-04-25T07:57:11.133Z,20.10
2019-04-25T07:58:11.124Z,20.12
2019-04-25T07:59:11.111Z,19.91
2019-04-25T08:00:11.102Z,19.53
2019-04-25T08:01:11.091Z,19.23
2019-04-25T08:02:13.271Z,18.74
2019-04-25T08:03:11.070Z,18.34
2019-04-25T08:04:11.060Z,18.09
2019-04-25T08:05:11.050Z,17.83
2019-04-25T08:06:11.039Z,17.54
2019-04-25T08:07:11.379Z,17.30
2019-04-25T08:08:11.021Z,17.08
2019-04-25T08:09:11.007Z,16.95
2019-04-25T08:10:10.993Z,16.76
2019-04-25T08:11:10.987Z,16.61
2019-04-25T08:12:11.323Z,16.47
2019-04-25T08:13:10.962Z,16.32
2019-04-25T08:14:10.956Z,16.15
2019-04-25T08:15:10.940Z,15.99
2019-04-25T08:16:10.930Z,15.88
2019-04-25T08:17:10.921Z,15.85
2019-04-25T08:18:10.955Z,15.92
2019-04-25T08:19:10.897Z,15.81
2019-04-25T08:20:10.885Z,15.66
2019-04-25T08:21:10.877Z,15.70
2019-04-25T08:22:10.866Z,15.72
2019-04-25T08:23:10.853Z,15.74
2019-04-25T08:24:10.892Z,15.79
2019-04-25T08:25:10.830Z,15.93
2019-04-25T08:26:10.820Z,15.99
2019-04-25T08:27:10.810Z,15.86
2019-04-25T08:28:10.804Z,15.88
2019-04-25T08:29:10.791Z,15.79
2019-04-25T08:30:11.031Z,15.82
2019-04-25T08:31:10.769Z,15.92
2019-04-25T08:32:10.757Z,15.96
2019-04-25T08:33:10.741Z,16.06
2019-04-25T08:34:10.732Z,16.11
2019-04-25T08:35:10.719Z,16.03
2019-04-25T08:36:10.758Z,16.26
2019-04-25T08:37:18.191Z,16.44
2019-04-25T08:38:36.107Z,17.08
2019-04-25T08:39:37.323Z,17.32
2019-04-25T08:40:37.310Z,17.28
2019-04-25T08:41:36.045Z,17.25
2019-04-25T08:42:36.691Z,17.07
2019-04-25T08:43:37.804Z,16.96
2019-04-25T08:44:35.981Z,16.95
2019-04-25T08:45:37.044Z,16.95
2019-04-25T08:46:36.843Z,16.98
2019-04-25T08:47:36.170Z,16.82
2019-04-25T08:48:35.812Z,16.79
2019-04-25T08:49:36.257Z,16.70
2019-04-25T08:50:38.656Z,16.61
2019-04-25T08:51:36.094Z,16.52
2019-04-25T08:52:36.324Z,16.44
2019-04-25T08:53:36.538Z,16.34
2019-04-25T08:54:39.706Z,16.24
2019-04-25T08:56:00.138Z,16.12
2019-04-25T08:57:00.127Z,16.18
2019-04-25T08:58:00.134Z,16.19
2019-04-25T08:59:04.169Z,16.24
2019-04-25T09:00:24.912Z,16.34
2019-04-25T09:01:24.903Z,16.48
2019-04-25T09:02:24.891Z,16.47
2019-04-25T09:03:24.881Z,16.90
2019-04-25T09:05:24.909Z,16.93
2019-04-25T09:06:24.848Z,16.99
2019-04-25T09:07:24.841Z,17.03
2019-04-25T09:08:24.830Z,17.00
2019-04-25T09:09:24.820Z,16.88
2019-04-25T09:10:24.810Z,16.74
2019-04-25T09:11:25.049Z,16.87
2019-04-25T09:12:24.788Z,16.95
2019-04-25T09:13:24.780Z,16.73
2019-04-25T09:14:24.770Z,16.62
2019-04-25T09:15:24.759Z,16.59
2019-04-25T09:16:24.750Z,16.72
2019-04-25T09:17:24.790Z,16.59
2019-04-25T09:18:24.727Z,16.52
2019-04-25T09:19:24.716Z,16.49
2019-04-25T09:20:24.708Z,16.92
2019-04-25T09:21:24.698Z,17.43
2019-04-25T09:22:24.685Z,17.69
2019-04-25T09:23:24.726Z,17.69
2019-04-25T09:24:24.709Z,17.62
2019-04-25T09:25:24.655Z,17.35
2019-04-25T09:26:24.648Z,17.17
2019-04-25T09:27:24.634Z,17.17
2019-04-25T09:28:24.624Z,17.20
2019-04-25T09:29:24.766Z,17.06
2019-04-25T09:30:24.603Z,17.13
2019-04-25T09:31:24.594Z,17.29
2019-04-25T09:32:24.584Z,17.22
2019-04-25T09:33:24.574Z,17.10
2019-04-25T09:34:24.567Z,16.85
2019-04-25T09:36:24.589Z,17.03
2019-04-25T09:37:24.701Z,17.36
2019-04-25T09:38:24.521Z,17.50
2019-04-25T09:39:24.514Z,17.77
2019-04-25T09:40:24.501Z,18.12
2019-04-25T09:41:24.490Z,17.98
2019-04-25T09:43:24.574Z,17.98
2019-04-25T09:44:24.460Z,17.70
2019-04-25T09:45:26.310Z,17.55
2019-04-25T09:46:24.442Z,17.22
2019-04-25T09:47:24.432Z,17.14
2019-04-25T09:48:24.416Z,16.90
2019-04-25T09:49:24.507Z,16.66
2019-04-25T09:50:24.398Z,16.57
2019-04-25T09:51:24.389Z,16.37
2019-04-25T09:52:24.474Z,16.37
2019-04-25T09:53:25.996Z,16.34
2019-04-25T09:54:24.365Z,16.34
2019-04-25T09:55:24.398Z,16.34
2019-04-25T09:56:24.336Z,16.36
2019-04-25T09:57:24.324Z,16.47
2019-04-25T09:58:24.317Z,16.64
2019-04-25T09:59:27.948Z,16.88
2019-04-25T10:00:24.445Z,16.90
2019-04-25T10:01:24.284Z,16.99
2019-04-25T10:02:24.276Z,17.08
2019-04-25T10:03:24.261Z,17.03
2019-04-25T10:04:24.253Z,17.03
2019-04-25T10:05:24.245Z,16.84
2019-04-25T10:06:24.287Z,16.82
2019-04-25T10:07:24.221Z,16.76
2019-04-25T10:08:24.296Z,16.73
2019-04-25T10:09:24.205Z,16.79
2019-04-25T10:10:24.221Z,16.77
2019-04-25T10:11:24.183Z,16.66
2019-04-25T10:12:24.224Z,16.84
2019-04-25T10:13:25.250Z,17.15
2019-04-25T10:14:24.535Z,17.65
2019-04-25T10:15:24.139Z,17.96
2019-04-25T10:16:24.128Z,18.09
2019-04-25T10:17:24.618Z,18.14
2019-04-25T10:18:24.111Z,17.99
2019-04-25T10:19:24.100Z,17.86
2019-04-25T10:20:24.088Z,17.83
2019-04-25T10:21:24.077Z,17.73
2019-04-25T10:22:24.118Z,17.61
2019-04-25T10:23:24.164Z,17.55
2019-04-25T10:24:24.050Z,17.36
2019-04-25T10:25:24.035Z,17.07
2019-04-25T10:26:24.027Z,17.14
2019-04-25T10:27:24.221Z,16.99
2019-04-25T10:28:24.006Z,16.98
2019-04-25T10:29:23.998Z,16.76
2019-04-25T10:30:25.918Z,16.39
2019-04-25T10:31:23.974Z,16.24
2019-04-25T10:32:23.965Z,16.11
2019-04-25T10:33:24.370Z,16.03
2019-04-25T10:34:24.219Z,15.96
2019-04-25T10:35:23.974Z,15.76
2019-04-25T10:36:24.663Z,15.78
2019-04-25T10:37:23.913Z,16.09
2019-04-25T10:38:24.198Z,16.29
2019-04-25T10:39:23.982Z,16.33
2019-04-25T10:40:25.043Z,16.58
2019-04-25T10:41:24.440Z,16.99
2019-04-25T10:42:23.991Z,17.10
2019-04-25T10:43:24.068Z,16.93
2019-04-25T10:44:24.523Z,16.92
2019-04-25T10:45:25.945Z,16.95
2019-04-25T10:46:24.433Z,17.04
2019-04-25T10:47:23.812Z,16.99
2019-04-25T10:48:24.118Z,16.95
2019-04-25T10:49:23.786Z,17.06
2019-04-25T10:51:24.076Z,17.00
2019-04-25T10:52:23.751Z,17.10
2019-04-25T10:53:25.182Z,16.85
2019-04-25T10:54:23.731Z,16.62
2019-04-25T10:55:23.721Z,16.48
2019-04-25T10:56:24.309Z,16.49
2019-04-25T10:57:24.930Z,16.49
2019-04-25T10:58:23.687Z,16.19
2019-04-25T10:59:23.702Z,15.89
2019-04-25T11:00:24.136Z,15.75
2019-04-25T11:01:24.399Z,15.59
2019-04-25T11:02:23.677Z,15.38
2019-04-25T11:03:24.133Z,15.16
2019-04-25T11:04:23.624Z,15.01
2019-04-25T11:05:23.913Z,14.72
2019-04-25T11:06:23.607Z,14.60
2019-04-25T11:07:23.590Z,14.44
2019-04-25T11:08:24.550Z,14.42
2019-04-25T11:09:24.281Z,14.31
2019-04-25T11:10:23.658Z,14.31
2019-04-25T11:11:24.100Z,14.21
2019-04-25T11:12:23.604Z,14.10
2019-04-25T11:13:23.528Z,14.01
2019-04-25T11:14:23.977Z,14.00
2019-04-25T11:15:23.604Z,14.03
2019-04-25T11:16:24.220Z,14.07
2019-04-25T11:17:24.278Z,14.14
2019-04-25T11:18:23.838Z,14.20
2019-04-25T11:19:23.964Z,14.31
2019-04-25T11:20:23.456Z,14.28
2019-04-25T11:22:23.984Z,14.13
2019-04-25T11:23:23.425Z,14.10
2019-04-25T11:24:23.805Z,14.14
2019-04-25T11:25:24.046Z,14.10
2019-04-25T11:26:23.390Z,14.10
2019-04-25T11:27:23.962Z,14.07
2019-04-25T11:28:23.623Z,14.07
2019-04-25T11:29:24.021Z,14.06
2019-04-25T11:30:23.373Z,14.14
2019-04-25T11:31:23.639Z,14.28
2019-04-25T11:32:23.819Z,14.27
2019-04-25T11:33:24.651Z,14.25
2019-04-25T11:34:23.414Z,14.28
2019-04-25T11:35:24.188Z,14.27
2019-04-25T11:36:24.865Z,14.19
2019-04-25T11:37:23.908Z,14.28
2019-04-25T11:38:23.736Z,14.29
2019-04-25T11:39:23.939Z,14.25
2019-04-25T11:40:23.494Z,14.24
2019-04-25T11:41:24.244Z,14.17
2019-04-25T11:42:23.378Z,14.00
2019-04-25T11:43:23.216Z,14.01
2019-04-25T11:44:24.557Z,14.01
2019-04-25T11:45:23.292Z,13.98
2019-04-25T11:46:24.174Z,14.01
2019-04-25T11:47:24.258Z,14.19
2019-04-25T11:48:23.827Z,14.17
2019-04-25T11:49:23.843Z,14.13
2019-04-25T11:50:23.141Z,14.19
2019-04-25T11:51:24.023Z,14.12
2019-04-25T11:52:28.198Z,14.12
2019-04-25T11:53:48.458Z,14.06
2019-04-25T11:54:48.176Z,13.98
2019-04-25T11:55:49.289Z,13.94
2019-04-25T11:56:48.630Z,13.88
2019-04-25T11:57:50.068Z,13.88
2019-04-25T11:58:48.900Z,13.82
2019-04-25T11:59:49.306Z,13.78
2019-04-25T12:00:48.834Z,13.78
2019-04-25T12:01:47.839Z,13.72
2019-04-25T12:02:47.878Z,13.64
2019-04-25T12:03:48.960Z,13.62
2019-04-25T12:04:48.163Z,13.66
2019-04-25T12:05:48.395Z,13.61
2019-04-25T12:06:47.787Z,13.53
2019-04-25T12:07:47.956Z,13.55
2019-04-25T12:08:47.810Z,13.57
2019-04-25T12:09:48.144Z,13.55
2019-04-25T12:10:47.901Z,13.50
2019-04-25T12:11:48.517Z,13.45
2019-04-25T12:12:47.721Z,13.54
2019-04-25T12:13:48.105Z,13.50
2019-04-25T12:14:47.949Z,13.54
2019-04-25T12:15:47.687Z,13.53
2019-04-25T12:16:50.087Z,13.54
2019-04-25T12:17:47.668Z,13.57
2019-04-25T12:18:50.029Z,13.58
2019-04-25T12:19:47.646Z,13.62
2019-04-25T12:20:48.703Z,13.60
2019-04-25T12:21:48.170Z,13.58
2019-04-25T12:22:48.290Z,13.64
2019-04-25T12:23:48.727Z,13.60
2019-04-25T12:24:47.893Z,13.61
2019-04-25T12:25:47.629Z,13.60
2019-04-25T12:26:48.677Z,13.55
2019-04-25T12:27:49.863Z,13.48
2019-04-25T12:28:47.551Z,13.51
2019-04-25T12:29:47.547Z,13.43
2019-04-25T12:30:47.529Z,13.36
2019-04-25T12:31:47.711Z,13.32
2019-04-25T12:32:47.974Z,13.20
2019-04-25T12:33:48.657Z,13.33
2019-04-25T12:34:47.545Z,13.27
2019-04-25T12:35:47.952Z,13.25
2019-04-25T12:36:47.576Z,13.04
2019-04-25T12:37:48.142Z,13.06
2019-04-25T12:38:48.350Z,12.96
2019-04-25T12:39:48.422Z,12.95
2019-04-25T12:40:48.192Z,12.95
2019-04-25T12:41:49.053Z,12.75
2019-04-25T12:42:47.878Z,12.66
2019-04-25T12:43:47.391Z,12.81
2019-04-25T12:44:48.598Z,12.64
2019-04-25T12:45:47.370Z,12.71
2019-04-25T12:46:48.437Z,12.70
2019-04-25T12:47:47.662Z,12.74
2019-04-25T12:48:47.645Z,12.71
2019-04-25T12:49:47.330Z,12.74
2019-04-25T12:50:47.926Z,12.75
2019-04-25T12:51:47.780Z,12.70
2019-04-25T12:52:48.595Z,12.70
2019-04-25T12:53:48.007Z,12.50
2019-04-25T12:54:47.586Z,12.48
2019-04-25T12:55:47.483Z,12.50
2019-04-25T12:56:47.482Z,12.44
2019-04-25T12:57:48.146Z,12.37
2019-04-25T12:58:47.978Z,12.44
2019-04-25T12:59:47.385Z,12.50
2019-04-25T13:00:49.391Z,12.41
2019-04-25T13:01:47.196Z,12.38
2019-04-25T13:02:47.237Z,12.44
2019-04-25T13:03:48.107Z,12.50
2019-04-25T13:04:47.837Z,12.50
2019-04-25T13:05:47.290Z,12.51
2019-04-25T13:06:48.689Z,12.50
2019-04-25T13:07:47.132Z,12.51